createdAt,value
2022-09-30T00:01:39.935Z,96.92
2022-09-30T00:04:09.502Z,97.33
2022-09-30T00:06:37.651Z,97.34
2022-09-30T00:09:06.906Z,97.02
2022-09-30T00:11:38.751Z,96.04
2022-09-30T00:14:08.034Z,95.58
2022-09-30T00:16:38.870Z,94.91
2022-09-30T00:19:07.188Z,94.14
2022-09-30T00:21:35.707Z,93.21
2022-09-30T00:24:04.829Z,92.50
2022-09-30T00:26:33.900Z,92.09
2022-09-30T00:29:03.120Z,92.50
2022-09-30T00:31:33.926Z,92.54
2022-09-30T00:34:11.526Z,93.02
2022-09-30T00:36:43.687Z,93.32
2022-09-30T00:39:14.793Z,93.39
2022-09-30T00:41:43.539Z,92.01
2022-09-30T00:44:46.962Z,91.33
2022-09-30T00:47:32.227Z,89.27
2022-09-30T00:50:06.652Z,86.35
2022-09-30T00:52:36.058Z,84.00
2022-09-30T00:55:11.214Z,82.19
2022-09-30T00:57:39.399Z,80.90
2022-09-30T01:00:09.201Z,79.24
2022-09-30T01:02:37.651Z,79.12
2022-09-30T01:05:09.559Z,79.33
2022-09-30T01:07:37.887Z,80.65
2022-09-30T01:10:06.667Z,81.61
2022-09-30T01:12:35.180Z,82.05
2022-09-30T01:15:05.190Z,83.16
2022-09-30T01:17:43.545Z,83.82
2022-09-30T01:20:48.663Z,84.46
2022-09-30T01:23:42.792Z,85.69
2022-09-30T01:26:52.530Z,86.51
2022-09-30T01:29:42.076Z,87.18
2022-09-30T01:32:19.974Z,87.11
2022-09-30T01:35:01.237Z,86.36
2022-09-30T01:37:38.858Z,85.24
2022-09-30T01:40:13.836Z,84.54
2022-09-30T01:42:53.270Z,84.17
2022-09-30T01:45:31.890Z,83.54
2022-09-30T01:48:04.727Z,82.81
2022-09-30T01:50:41.433Z,82.64
2022-09-30T01:53:16.878Z,82.65
2022-09-30T01:55:52.038Z,82.07
2022-09-30T01:58:26.879Z,81.85
2022-09-30T02:01:00.913Z,81.93
2022-09-30T02:03:36.737Z,81.74
2022-09-30T02:06:08.773Z,80.71
2022-09-30T02:08:42.914Z,80.58
2022-09-30T02:11:16.409Z,80.21
2022-09-30T02:13:51.263Z,80.02
2022-09-30T02:16:24.701Z,79.89
2022-09-30T02:18:57.510Z,79.75
2022-09-30T02:21:34.038Z,79.73
2022-09-30T02:24:07.084Z,79.97
2022-09-30T02:26:40.402Z,79.97
2022-09-30T02:29:15.218Z,79.81
2022-09-30T02:31:46.073Z,79.62
2022-09-30T02:34:20.167Z,79.43
2022-09-30T02:36:53.754Z,79.56
2022-09-30T02:39:28.634Z,79.49
2022-09-30T02:42:03.726Z,79.64
2022-09-30T02:44:32.971Z,79.32
2022-09-30T02:47:15.659Z,79.73
2022-09-30T02:49:51.130Z,80.79
2022-09-30T02:52:29.051Z,80.60
2022-09-30T02:55:14.462Z,79.92
2022-09-30T02:57:56.325Z,79.45
2022-09-30T03:00:24.600Z,80.19
2022-09-30T03:02:58.931Z,80.84
2022-09-30T03:05:28.947Z,80.82
2022-09-30T03:07:57.677Z,80.16
2022-09-30T03:10:26.409Z,79.78
2022-09-30T03:13:11.946Z,79.19
2022-09-30T03:15:53.183Z,79.00
2022-09-30T03:18:59.295Z,79.01
2022-09-30T03:21:43.734Z,78.88
2022-09-30T03:24:31.994Z,78.84
2022-09-30T03:27:12.866Z,79.55
2022-09-30T03:29:51.376Z,79.70
2022-09-30T03:32:32.571Z,79.77
2022-09-30T03:35:06.254Z,79.34
2022-09-30T03:37:45.588Z,78.99
2022-09-30T03:40:23.053Z,78.54
2022-09-30T03:42:56.077Z,77.58
2022-09-30T03:45:31.910Z,77.81
2022-09-30T03:48:05.940Z,77.30
2022-09-30T03:50:37.090Z,77.03
2022-09-30T03:53:12.696Z,77.52
2022-09-30T03:55:49.295Z,77.25
2022-09-30T03:58:17.915Z,77.84
2022-09-30T04:00:50.845Z,80.53
2022-09-30T04:03:19.753Z,82.89
2022-09-30T04:05:48.634Z,86.48
2022-09-30T04:08:18.320Z,88.05
2022-09-30T04:10:46.626Z,90.53
2022-09-30T04:13:14.740Z,92.38
2022-09-30T04:15:42.949Z,94.03
2022-09-30T04:18:11.052Z,95.88
2022-09-30T04:20:39.890Z,95.60
2022-09-30T04:23:07.985Z,96.48
2022-09-30T04:25:37.472Z,96.00
2022-09-30T04:28:05.645Z,96.46
2022-09-30T04:30:33.901Z,96.60
2022-09-30T04:33:02.157Z,96.21
2022-09-30T04:35:30.428Z,95.83
2022-09-30T04:37:58.690Z,95.41
2022-09-30T04:40:26.917Z,95.18
2022-09-30T04:42:59.107Z,91.11
2022-09-30T04:45:27.246Z,88.28
2022-09-30T04:47:55.360Z,87.35
2022-09-30T04:50:24.003Z,86.98
2022-09-30T04:52:52.212Z,86.30
2022-09-30T04:55:20.261Z,85.69
2022-09-30T04:57:48.387Z,80.92
2022-09-30T05:00:18.343Z,77.29
2022-09-30T05:02:46.419Z,77.41
2022-09-30T05:05:14.614Z,78.38
2022-09-30T05:07:42.698Z,76.13
2022-09-30T05:10:11.659Z,76.78
2022-09-30T05:12:41.075Z,76.81
2022-09-30T05:15:10.523Z,75.72
2022-09-30T05:17:40.027Z,74.71
2022-09-30T05:20:10.951Z,73.48
2022-09-30T05:22:39.628Z,75.79
2022-09-30T05:25:08.461Z,73.75
2022-09-30T05:27:36.975Z,74.00
2022-09-30T05:30:06.752Z,73.00
2022-09-30T05:32:34.873Z,70.01
2022-09-30T05:35:04.911Z,68.36
2022-09-30T05:37:33.155Z,69.78
2022-09-30T05:40:01.282Z,66.92
2022-09-30T05:42:29.387Z,66.47
2022-09-30T05:44:57.505Z,65.29
2022-09-30T05:47:25.614Z,59.88
2022-09-30T05:49:56.104Z,60.14
2022-09-30T05:52:25.933Z,60.16
2022-09-30T05:54:54.327Z,59.16
2022-09-30T05:57:22.575Z,59.22
2022-09-30T05:59:51.139Z,57.58
2022-09-30T06:02:19.414Z,55.00
2022-09-30T06:04:48.402Z,51.68
2022-09-30T06:07:16.566Z,50.35
2022-09-30T06:09:47.454Z,49.25
2022-09-30T06:12:16.325Z,47.30
2022-09-30T06:14:44.555Z,45.97
2022-09-30T06:17:12.616Z,46.48
2022-09-30T06:19:40.868Z,51.13
2022-09-30T06:22:09.014Z,49.91
2022-09-30T06:24:37.309Z,49.50
2022-09-30T06:27:06.822Z,49.06
2022-09-30T06:29:34.982Z,51.06
2022-09-30T06:32:03.696Z,51.06
2022-09-30T06:34:31.940Z,52.34
2022-09-30T06:37:00.132Z,52.56
2022-09-30T06:39:28.265Z,53.70
2022-09-30T06:41:58.487Z,54.60
2022-09-30T06:44:28.175Z,55.88
2022-09-30T06:46:56.571Z,58.08
2022-09-30T06:49:25.373Z,59.13
2022-09-30T06:51:53.820Z,59.91
2022-09-30T06:54:22.089Z,60.71
2022-09-30T06:56:53.471Z,62.05
2022-09-30T06:59:21.710Z,63.12
2022-09-30T07:01:51.462Z,62.25
2022-09-30T07:04:19.637Z,62.12
2022-09-30T07:06:47.888Z,62.04
2022-09-30T07:09:16.505Z,63.01
2022-09-30T07:11:45.319Z,62.28
2022-09-30T07:14:14.289Z,61.88
2022-09-30T07:16:44.780Z,61.18
2022-09-30T07:19:14.753Z,60.77
2022-09-30T07:21:42.849Z,59.63
2022-09-30T07:24:11.736Z,59.92
2022-09-30T07:26:40.248Z,59.59
2022-09-30T07:29:08.558Z,59.57
2022-09-30T07:31:36.809Z,59.49
2022-09-30T07:34:08.253Z,59.59
2022-09-30T07:36:39.548Z,59.32
2022-09-30T07:39:11.109Z,58.97
2022-09-30T07:41:41.347Z,59.41
2022-09-30T07:44:14.337Z,59.73
2022-09-30T07:46:44.300Z,59.95
2022-09-30T07:49:15.998Z,59.67
2022-09-30T07:51:46.791Z,60.86
2022-09-30T07:54:16.514Z,60.47
2022-09-30T07:59:36.134Z,60.02
2022-09-30T08:02:04.571Z,59.17
2022-09-30T08:04:32.875Z,60.08
2022-09-30T08:07:03.540Z,58.73
2022-09-30T08:09:32.340Z,59.23
2022-09-30T08:12:00.550Z,58.75
2022-09-30T08:14:29.437Z,59.19
2022-09-30T08:17:00.434Z,58.96
2022-09-30T08:19:30.571Z,58.35
2022-09-30T08:22:00.004Z,59.13
2022-09-30T08:24:29.567Z,58.12
2022-09-30T08:26:57.728Z,56.76
2022-09-30T08:32:14.223Z,58.06
2022-09-30T08:34:42.406Z,55.88
2022-09-30T08:37:11.282Z,56.13
2022-09-30T08:39:40.806Z,57.13
2022-09-30T08:42:36.575Z,57.93
2022-09-30T08:45:19.360Z,58.21
2022-09-30T08:47:53.742Z,58.47
2022-09-30T08:50:29.437Z,57.48
2022-09-30T08:53:02.913Z,59.36
2022-09-30T08:55:40.914Z,57.28
2022-09-30T08:58:22.799Z,58.29
2022-09-30T09:00:54.145Z,57.29
2022-09-30T09:03:27.675Z,57.68
2022-09-30T09:06:03.686Z,57.15
2022-09-30T09:08:50.665Z,56.54
2022-09-30T09:11:34.153Z,57.12
2022-09-30T09:14:06.878Z,57.27
2022-09-30T09:16:42.067Z,58.09
2022-09-30T09:19:12.732Z,56.34
2022-09-30T09:21:52.678Z,58.53
2022-09-30T09:24:23.568Z,58.23
2022-09-30T09:26:55.520Z,58.09
2022-09-30T09:29:41.956Z,58.87
2022-09-30T09:32:16.126Z,59.05
2022-09-30T09:34:44.470Z,60.17
2022-09-30T09:37:21.148Z,61.52
2022-09-30T09:40:04.789Z,60.70
2022-09-30T09:42:57.302Z,61.37
2022-09-30T09:45:32.715Z,62.44
2022-09-30T09:48:00.981Z,63.33
2022-09-30T09:50:39.538Z,62.77
2022-09-30T09:53:22.339Z,62.70
2022-09-30T09:55:55.410Z,62.09
2022-09-30T09:58:25.241Z,61.83
2022-09-30T10:01:30.689Z,62.21
2022-09-30T10:04:11.150Z,63.17
2022-09-30T10:06:49.190Z,64.27
2022-09-30T10:09:29.679Z,64.42
2022-09-30T10:12:28.987Z,64.50
2022-09-30T10:15:22.222Z,65.81
2022-09-30T10:17:58.793Z,65.58
2022-09-30T10:20:33.178Z,67.69
2022-09-30T10:23:11.347Z,68.00
2022-09-30T10:25:39.513Z,69.04
2022-09-30T10:28:23.934Z,69.61
2022-09-30T10:30:58.726Z,70.15
2022-09-30T10:33:31.269Z,70.43
2022-09-30T10:36:06.948Z,69.40
2022-09-30T10:38:35.982Z,67.79
2022-09-30T10:41:06.432Z,66.65
2022-09-30T10:43:42.130Z,65.93
2022-09-30T10:46:25.904Z,65.51
2022-09-30T10:48:56.455Z,66.98
2022-09-30T10:51:30.817Z,67.12
2022-09-30T10:53:59.242Z,66.31
2022-09-30T10:56:45.333Z,66.20
2022-09-30T10:59:21.523Z,65.21
2022-09-30T11:01:57.646Z,64.65
2022-09-30T11:04:36.890Z,62.18
2022-09-30T11:07:17.191Z,61.06
2022-09-30T11:09:52.042Z,63.95
2022-09-30T11:12:27.231Z,65.92
2022-09-30T11:15:03.735Z,66.41
2022-09-30T11:17:41.362Z,66.67
2022-09-30T11:20:19.901Z,66.91
2022-09-30T11:22:56.559Z,64.55
2022-09-30T11:25:29.829Z,61.84
2022-09-30T11:28:15.056Z,61.80
2022-09-30T11:30:50.046Z,61.26
2022-09-30T11:33:47.151Z,59.94
2022-09-30T11:36:24.296Z,56.45
2022-09-30T11:39:02.573Z,57.26
2022-09-30T11:41:33.926Z,58.06
2022-09-30T11:44:15.731Z,56.62
2022-09-30T11:47:08.573Z,57.47
2022-09-30T11:49:56.504Z,57.76
2022-09-30T11:52:34.067Z,56.63
2022-09-30T11:55:27.330Z,54.55
2022-09-30T11:58:12.122Z,54.62
2022-09-30T12:00:55.038Z,54.27
2022-09-30T12:03:30.008Z,55.76
2022-09-30T12:06:05.028Z,54.97
2022-09-30T12:08:37.316Z,54.79
2022-09-30T12:11:11.763Z,54.68
2022-09-30T12:13:43.758Z,54.99
2022-09-30T12:16:19.760Z,52.66
2022-09-30T12:18:52.690Z,53.19
2022-09-30T12:21:26.081Z,53.83
2022-09-30T12:23:58.945Z,52.81
2022-09-30T12:26:27.431Z,52.96
2022-09-30T12:29:19.513Z,55.34
2022-09-30T12:32:06.321Z,57.77
2022-09-30T12:34:52.247Z,58.75
2022-09-30T12:37:43.305Z,59.55
2022-09-30T12:40:41.065Z,62.04
2022-09-30T12:43:23.900Z,62.23
2022-09-30T12:46:15.324Z,63.67
2022-09-30T12:48:48.725Z,63.53
2022-09-30T12:51:26.818Z,62.76
2022-09-30T12:54:04.616Z,62.46
2022-09-30T12:56:34.312Z,62.83
2022-09-30T12:59:03.906Z,62.99
2022-09-30T13:01:33.860Z,64.28
2022-09-30T13:04:19.040Z,64.92
2022-09-30T13:07:07.425Z,64.07
2022-09-30T13:09:38.648Z,64.67
2022-09-30T13:12:42.676Z,65.41
2022-09-30T13:15:41.990Z,65.10
2022-09-30T13:18:48.160Z,66.09
2022-09-30T13:21:27.592Z,66.84
2022-09-30T13:23:57.029Z,66.71
2022-09-30T13:26:39.339Z,66.74
2022-09-30T13:29:35.044Z,67.14
2022-09-30T13:32:04.714Z,67.30
2022-09-30T13:34:34.389Z,67.96
2022-09-30T13:37:04.007Z,68.64
2022-09-30T13:39:45.764Z,68.69
2022-09-30T13:42:24.568Z,69.46
2022-09-30T13:45:03.231Z,70.01
2022-09-30T13:47:36.517Z,70.56
2022-09-30T13:50:14.929Z,70.97
2022-09-30T13:52:46.171Z,71.74
2022-09-30T13:55:21.574Z,72.62
2022-09-30T13:58:04.496Z,72.43
2022-09-30T14:00:51.329Z,72.56
2022-09-30T14:03:44.935Z,71.63
2022-09-30T14:06:25.092Z,72.76
2022-09-30T14:09:18.118Z,73.24
2022-09-30T14:12:14.359Z,73.99
2022-09-30T14:15:09.621Z,74.02
2022-09-30T14:17:57.214Z,74.38
2022-09-30T14:20:41.487Z,75.05
2022-09-30T14:23:15.540Z,75.13
2022-09-30T14:25:53.294Z,75.95
2022-09-30T14:28:31.885Z,76.29
2022-09-30T14:31:10.002Z,76.30
2022-09-30T14:33:39.688Z,76.70
2022-09-30T14:36:15.885Z,77.05
2022-09-30T14:38:47.844Z,77.21
2022-09-30T14:41:20.930Z,77.45
2022-09-30T14:43:53.006Z,77.35
2022-09-30T14:46:30.279Z,78.22
2022-09-30T14:49:04.663Z,77.71
2022-09-30T14:51:43.356Z,77.54
2022-09-30T14:54:19.139Z,78.14
2022-09-30T14:56:48.289Z,78.67
2022-09-30T14:59:23.798Z,78.95
2022-09-30T15:01:56.202Z,79.16
2022-09-30T15:04:30.293Z,79.31
2022-09-30T15:07:00.428Z,79.95
2022-09-30T15:09:32.650Z,79.97
2022-09-30T15:12:06.574Z,80.44
2022-09-30T15:14:34.903Z,80.80
2022-09-30T15:17:06.461Z,81.40
2022-09-30T15:19:36.337Z,81.71
2022-09-30T15:22:09.513Z,81.62
2022-09-30T15:24:38.754Z,82.42
2022-09-30T15:27:14.822Z,82.57
2022-09-30T15:29:55.633Z,83.83
2022-09-30T15:32:27.336Z,83.84
2022-09-30T15:34:58.722Z,83.94
2022-09-30T15:37:33.630Z,84.59
2022-09-30T15:40:20.935Z,85.25
2022-09-30T15:42:56.705Z,85.83
2022-09-30T15:45:35.367Z,86.04
2022-09-30T15:48:07.350Z,86.88
2022-09-30T15:50:42.234Z,87.19
2022-09-30T15:53:25.404Z,87.47
2022-09-30T15:55:55.765Z,88.71
2022-09-30T15:58:37.890Z,89.88
2022-09-30T16:01:20.179Z,90.09
2022-09-30T16:03:54.448Z,90.69
2022-09-30T16:06:27.744Z,91.77
2022-09-30T16:09:03.178Z,92.33
2022-09-30T16:11:35.047Z,92.48
2022-09-30T16:14:05.613Z,93.90
2022-09-30T16:16:37.009Z,93.96
2022-09-30T16:19:07.634Z,94.57
2022-09-30T16:21:45.194Z,95.20
2022-09-30T16:24:47.677Z,95.25
2022-09-30T16:27:23.851Z,95.03
2022-09-30T16:29:51.909Z,94.99
2022-09-30T16:32:20.384Z,95.08
2022-09-30T16:34:49.935Z,95.41
2022-09-30T16:37:21.488Z,95.35
2022-09-30T16:39:50.302Z,94.61
2022-09-30T16:42:19.486Z,94.78
2022-09-30T16:44:47.786Z,94.75
2022-09-30T16:47:17.438Z,94.75
2022-09-30T16:49:47.659Z,94.50
2022-09-30T16:52:18.215Z,94.66
2022-09-30T16:54:46.412Z,93.69
2022-09-30T16:57:16.326Z,93.75
2022-09-30T16:59:45.668Z,94.43
2022-09-30T17:02:15.986Z,94.81
2022-09-30T17:04:45.498Z,95.46
2022-09-30T17:07:15.369Z,95.53
2022-09-30T17:09:45.541Z,96.88
2022-09-30T17:12:13.752Z,96.84
2022-09-30T17:14:43.968Z,97.82
2022-09-30T17:17:13.639Z,98.19
2022-09-30T17:19:42.329Z,98.92
2022-09-30T17:22:10.418Z,99.67
2022-09-30T17:24:38.921Z,99.81
2022-09-30T17:27:08.825Z,99.95
2022-09-30T17:29:41.992Z,100.00
2022-09-30T17:32:10.699Z,99.52
2022-09-30T17:34:39.105Z,98.88
2022-09-30T17:39:40.422Z,99.72
2022-09-30T17:42:31.519Z,100.00
2022-09-30T17:44:59.653Z,100.00
2022-09-30T17:47:27.998Z,100.00
2022-09-30T17:49:56.320Z,100.00
2022-09-30T17:52:25.243Z,100.00
2022-09-30T17:54:54.046Z,100.00
2022-09-30T17:57:23.508Z,100.00
2022-09-30T17:59:51.925Z,99.60
2022-09-30T18:02:21.326Z,97.67
2022-09-30T18:04:49.519Z,96.75
2022-09-30T18:07:18.191Z,98.80
2022-09-30T18:09:46.290Z,99.56
2022-09-30T18:12:14.445Z,99.88
2022-09-30T18:14:44.011Z,100.00
2022-09-30T18:17:12.170Z,100.00
2022-09-30T18:19:41.570Z,100.00
2022-09-30T18:22:09.794Z,100.00
2022-09-30T18:25:04.028Z,100.00
2022-09-30T18:27:34.111Z,99.84
2022-09-30T18:30:05.156Z,98.72
2022-09-30T18:32:33.945Z,99.17
2022-09-30T18:35:02.080Z,99.51
2022-09-30T18:37:33.750Z,100.00
2022-09-30T18:40:02.687Z,100.00
2022-09-30T18:42:30.739Z,100.00
2022-09-30T18:44:58.802Z,100.00
2022-09-30T18:47:28.456Z,100.00
2022-09-30T18:49:56.654Z,100.00
2022-09-30T18:52:24.710Z,100.00
2022-09-30T18:54:52.923Z,100.00
2022-09-30T18:57:21.026Z,100.00
2022-09-30T18:59:49.071Z,100.00
2022-09-30T19:02:20.770Z,99.31
2022-09-30T19:04:50.356Z,99.27
2022-09-30T19:07:20.610Z,100.00
2022-09-30T19:09:48.687Z,100.00
2022-09-30T19:12:17.742Z,100.00
2022-09-30T19:14:46.516Z,100.00
2022-09-30T19:17:15.323Z,100.00
2022-09-30T19:19:45.825Z,100.00
2022-09-30T19:22:15.563Z,100.00
2022-09-30T19:24:44.048Z,100.00
2022-09-30T19:27:12.314Z,100.00
2022-09-30T19:29:40.561Z,100.00
2022-09-30T19:32:12.815Z,100.00
2022-09-30T19:34:40.902Z,100.00
2022-09-30T19:37:18.778Z,100.00
2022-09-30T19:39:53.472Z,100.00
2022-09-30T19:42:21.520Z,100.00
2022-09-30T19:44:49.856Z,100.00
2022-09-30T19:47:18.886Z,100.00
2022-09-30T19:49:46.940Z,100.00
2022-09-30T19:52:21.897Z,100.00
2022-09-30T19:54:51.877Z,100.00
2022-09-30T19:57:23.879Z,100.00
2022-09-30T19:59:53.373Z,100.00
2022-09-30T20:02:22.237Z,100.00
2022-09-30T20:04:51.748Z,100.00
2022-09-30T20:07:19.866Z,100.00
2022-09-30T20:09:47.905Z,100.00
2022-09-30T20:12:16.010Z,100.00
2022-09-30T20:15:03.043Z,100.00
2022-09-30T20:17:31.146Z,100.00
2022-09-30T20:20:17.250Z,100.00
2022-09-30T20:22:45.329Z,100.00
2022-09-30T20:25:14.149Z,100.00
2022-09-30T20:27:43.055Z,100.00
2022-09-30T20:30:13.138Z,100.00
2022-09-30T20:32:41.302Z,100.00
2022-09-30T20:35:11.397Z,100.00
2022-09-30T20:37:40.969Z,100.00
2022-09-30T20:40:10.344Z,100.00
2022-09-30T20:42:40.134Z,100.00
2022-09-30T20:45:10.732Z,100.00
2022-09-30T20:47:40.982Z,100.00
2022-09-30T20:50:10.380Z,100.00
2022-09-30T20:52:38.740Z,100.00
2022-09-30T20:55:08.166Z,100.00
2022-09-30T20:57:36.617Z,100.00
2022-09-30T21:00:06.290Z,100.00
2022-09-30T21:02:35.587Z,100.00
2022-09-30T21:05:05.673Z,100.00
2022-09-30T21:07:36.353Z,100.00
2022-09-30T21:10:04.661Z,100.00
2022-09-30T21:12:33.020Z,100.00
2022-09-30T21:15:01.452Z,100.00
2022-09-30T21:17:29.787Z,100.00
2022-09-30T21:19:57.967Z,100.00
2022-09-30T21:22:27.428Z,100.00
2022-09-30T21:24:55.650Z,100.00
2022-09-30T21:27:23.921Z,100.00
2022-09-30T21:29:52.048Z,100.00
2022-09-30T21:32:20.608Z,100.00
2022-09-30T21:34:49.233Z,100.00
2022-09-30T21:37:18.018Z,100.00
2022-09-30T21:39:48.433Z,100.00
2022-09-30T21:42:16.600Z,100.00
2022-09-30T21:44:45.079Z,100.00
2022-09-30T21:47:13.372Z,100.00
2022-09-30T21:49:41.503Z,100.00
2022-09-30T21:52:10.825Z,100.00
2022-09-30T21:54:40.355Z,100.00
2022-09-30T21:57:10.116Z,100.00
2022-09-30T21:59:46.293Z,100.00
2022-09-30T22:02:16.822Z,100.00
2022-09-30T22:04:44.974Z,100.00
2022-09-30T22:07:15.455Z,100.00
2022-09-30T22:09:44.519Z,100.00
2022-09-30T22:12:14.155Z,100.00
2022-09-30T22:14:42.327Z,100.00
2022-09-30T22:17:10.455Z,100.00
2022-09-30T22:19:39.203Z,100.00
2022-09-30T22:22:07.336Z,100.00
2022-09-30T22:24:36.937Z,100.00
2022-09-30T22:27:07.761Z,100.00
2022-09-30T22:29:37.336Z,100.00
2022-09-30T22:32:05.585Z,100.00
2022-09-30T22:34:51.398Z,100.00
2022-09-30T22:37:37.053Z,100.00
2022-09-30T22:40:05.620Z,100.00
2022-09-30T22:42:35.747Z,100.00
2022-09-30T22:45:05.791Z,100.00
2022-09-30T22:47:34.104Z,97.16
2022-09-30T22:50:02.287Z,94.86
2022-09-30T22:52:32.021Z,92.45
2022-09-30T22:55:00.548Z,91.13
2022-09-30T22:57:28.643Z,90.09
2022-09-30T22:59:59.196Z,87.59
2022-09-30T23:02:28.832Z,87.71
2022-09-30T23:04:59.074Z,89.49
2022-09-30T23:07:27.195Z,89.54
2022-09-30T23:09:55.626Z,86.64
2022-09-30T23:12:23.906Z,86.23
2022-09-30T23:14:53.875Z,84.98
2022-09-30T23:17:22.226Z,83.65
2022-09-30T23:19:51.808Z,85.24
2022-09-30T23:22:20.061Z,85.67
2022-09-30T23:24:48.340Z,82.00
2022-09-30T23:27:16.541Z,83.04
2022-09-30T23:29:44.619Z,81.25
2022-09-30T23:32:12.788Z,81.97
2022-09-30T23:34:40.864Z,82.17
2022-09-30T23:37:10.388Z,82.47
2022-09-30T23:39:38.455Z,80.59
2022-09-30T23:42:06.615Z,82.44
2022-09-30T23:44:34.736Z,81.65
2022-09-30T23:47:21.581Z,84.31
2022-09-30T23:49:50.548Z,81.30
2022-09-30T23:52:20.002Z,83.14
2022-09-30T23:54:48.127Z,81.68
2022-09-30T23:57:16.368Z,81.59
2022-09-30T23:59:44.436Z,74.68
